createdAt,value
2022-10-08T00:02:28.720Z,13.98
2022-10-08T00:04:57.816Z,18.08
2022-10-08T00:07:26.600Z,13.65
2022-10-08T00:09:56.088Z,13.52
2022-10-08T00:12:24.258Z,10.43
2022-10-08T00:14:52.664Z,16.77
2022-10-08T00:17:20.770Z,10.48
2022-10-08T00:19:48.890Z,10.45
2022-10-08T00:22:16.982Z,13.23
2022-10-08T00:24:46.413Z,10.73
2022-10-08T00:27:16.848Z,11.73
2022-10-08T00:29:45.557Z,14.25
2022-10-08T00:32:13.670Z,16.60
2022-10-08T00:34:43.102Z,14.25
2022-10-08T00:37:11.283Z,15.13
2022-10-08T00:39:39.612Z,15.15
2022-10-08T00:42:08.108Z,13.65
2022-10-08T00:44:55.399Z,10.35
2022-10-08T00:47:37.604Z,13.80
2022-10-08T00:50:12.931Z,11.52
2022-10-08T00:52:47.515Z,11.50
2022-10-08T00:55:20.794Z,13.13
2022-10-08T00:57:49.970Z,13.93
2022-10-08T01:00:22.951Z,13.10
2022-10-08T01:02:51.860Z,16.08
2022-10-08T01:05:36.251Z,15.25
2022-10-08T01:08:17.041Z,8.73
2022-10-08T01:10:58.141Z,15.55
2022-10-08T01:13:42.276Z,9.75
2022-10-08T01:16:27.429Z,11.18
2022-10-08T01:19:09.587Z,11.07
2022-10-08T01:21:47.557Z,11.63
2022-10-08T01:24:56.803Z,9.43
2022-10-08T01:27:33.707Z,14.15
2022-10-08T01:30:07.044Z,12.90
2022-10-08T01:32:42.543Z,16.63
2022-10-08T01:35:19.554Z,7.72
2022-10-08T01:37:50.304Z,12.40
2022-10-08T01:40:25.363Z,14.45
2022-10-08T01:42:59.946Z,13.27
2022-10-08T01:45:34.327Z,11.63
2022-10-08T01:48:09.106Z,11.60
2022-10-08T01:50:43.630Z,17.05
2022-10-08T01:53:17.808Z,12.30
2022-10-08T01:55:53.518Z,15.15
2022-10-08T01:58:31.162Z,12.27
2022-10-08T02:01:11.763Z,11.60
2022-10-08T02:04:00.030Z,10.32
2022-10-08T02:06:30.754Z,14.30
2022-10-08T02:08:58.980Z,12.75
2022-10-08T02:11:27.231Z,13.05
2022-10-08T02:13:57.398Z,16.35
2022-10-08T02:16:30.853Z,11.88
2022-10-08T02:19:08.556Z,12.13
2022-10-08T02:21:40.814Z,14.02
2022-10-08T02:24:19.205Z,18.65
2022-10-08T02:26:54.378Z,20.02
2022-10-08T02:29:32.900Z,12.93
2022-10-08T02:32:08.887Z,11.90
2022-10-08T02:34:44.905Z,16.48
2022-10-08T02:37:20.332Z,11.18
2022-10-08T02:39:57.558Z,15.07
2022-10-08T02:42:29.282Z,12.13
2022-10-08T02:45:07.442Z,11.52
2022-10-08T02:47:39.741Z,9.75
2022-10-08T02:50:16.442Z,11.32
2022-10-08T02:52:51.115Z,15.32
2022-10-08T02:55:34.114Z,13.68
2022-10-08T02:58:09.143Z,14.18
2022-10-08T03:00:45.195Z,11.82
2022-10-08T03:03:17.755Z,17.05
2022-10-08T03:05:47.984Z,20.80
2022-10-08T03:08:17.181Z,10.55
2022-10-08T03:10:46.315Z,9.52
2022-10-08T03:13:16.060Z,16.67
2022-10-08T03:15:48.643Z,11.52
2022-10-08T03:18:17.748Z,12.98
2022-10-08T03:20:51.843Z,15.60
2022-10-08T03:23:21.253Z,11.30
2022-10-08T03:25:49.395Z,11.32
2022-10-08T03:28:17.591Z,13.90
2022-10-08T03:30:47.593Z,9.48
2022-10-08T03:33:16.034Z,12.40
2022-10-08T03:35:46.662Z,15.25
2022-10-08T03:38:16.630Z,16.02
2022-10-08T03:40:45.547Z,12.07
2022-10-08T03:43:13.739Z,16.58
2022-10-08T03:45:52.399Z,11.80
2022-10-08T03:48:22.593Z,15.27
2022-10-08T03:50:53.941Z,13.30
2022-10-08T03:53:22.554Z,13.10
2022-10-08T03:55:51.109Z,8.15
2022-10-08T03:58:20.001Z,12.05
2022-10-08T04:00:59.131Z,12.43
2022-10-08T04:03:28.857Z,14.48
2022-10-08T04:05:57.426Z,14.05
2022-10-08T04:08:26.565Z,15.40
2022-10-08T04:10:55.226Z,14.73
2022-10-08T04:13:24.674Z,15.55
2022-10-08T04:15:52.855Z,18.13
2022-10-08T04:18:22.389Z,10.60
2022-10-08T04:20:50.538Z,16.92
2022-10-08T04:23:18.844Z,9.80
2022-10-08T04:25:54.784Z,12.35
2022-10-08T04:28:23.837Z,18.55
2022-10-08T04:31:00.948Z,14.80
2022-10-08T04:33:33.080Z,13.52
2022-10-08T04:36:01.855Z,17.88
2022-10-08T04:38:30.096Z,9.98
2022-10-08T04:41:07.623Z,11.35
2022-10-08T04:43:36.775Z,15.55
2022-10-08T04:46:06.818Z,11.93
2022-10-08T04:48:36.608Z,16.15
2022-10-08T04:51:10.653Z,14.88
2022-10-08T04:53:39.833Z,18.77
2022-10-08T04:56:14.550Z,14.52
2022-10-08T04:58:43.404Z,15.55
2022-10-08T05:01:15.514Z,16.48
2022-10-08T05:03:47.872Z,15.93
2022-10-08T05:06:17.837Z,12.55
2022-10-08T05:08:46.616Z,15.02
2022-10-08T05:11:15.764Z,21.52
2022-10-08T05:13:44.343Z,10.88
2022-10-08T05:16:14.627Z,16.33
2022-10-08T05:18:44.928Z,18.25
2022-10-08T05:21:16.152Z,16.63
2022-10-08T05:23:44.931Z,13.07
2022-10-08T05:26:16.594Z,18.25
2022-10-08T05:28:46.970Z,13.18
2022-10-08T05:31:15.839Z,18.48
2022-10-08T05:33:45.814Z,14.68
2022-10-08T05:36:18.943Z,9.80
2022-10-08T05:38:47.763Z,13.07
2022-10-08T05:41:19.768Z,11.15
2022-10-08T05:43:52.450Z,19.27
2022-10-08T05:46:20.668Z,11.02
2022-10-08T05:48:53.844Z,12.32
2022-10-08T05:51:22.693Z,12.57
2022-10-08T05:53:53.967Z,13.77
2022-10-08T05:56:24.927Z,17.52
2022-10-08T05:58:55.022Z,16.25
2022-10-08T06:01:26.013Z,13.20
2022-10-08T06:03:58.273Z,16.13
2022-10-08T06:06:27.686Z,14.02
2022-10-08T06:08:58.604Z,14.90
2022-10-08T06:11:27.688Z,13.70
2022-10-08T06:13:57.119Z,16.95
2022-10-08T06:16:27.123Z,11.75
2022-10-08T06:18:57.969Z,12.27
2022-10-08T06:21:29.322Z,13.52
2022-10-08T06:24:00.844Z,13.43
2022-10-08T06:26:35.584Z,17.23
2022-10-08T06:29:06.103Z,12.75
2022-10-08T06:31:35.334Z,12.77
2022-10-08T06:34:05.767Z,15.52
2022-10-08T06:36:37.069Z,16.15
2022-10-08T06:39:08.410Z,13.98
2022-10-08T06:41:36.888Z,14.98
2022-10-08T06:44:08.109Z,10.05
2022-10-08T06:46:37.057Z,13.68
2022-10-08T06:49:07.007Z,11.00
2022-10-08T06:51:36.029Z,16.17
2022-10-08T06:54:07.965Z,9.93
2022-10-08T06:56:37.787Z,11.98
2022-10-08T06:59:07.494Z,14.10
2022-10-08T07:01:36.625Z,14.27
2022-10-08T07:04:07.506Z,11.65
2022-10-08T07:06:36.011Z,9.52
2022-10-08T07:09:06.788Z,13.10
2022-10-08T07:11:35.076Z,10.77
2022-10-08T07:14:03.407Z,12.35
2022-10-08T07:16:31.756Z,16.60
2022-10-08T07:19:00.114Z,11.13
2022-10-08T07:21:31.393Z,10.40
2022-10-08T07:24:01.809Z,8.75
2022-10-08T07:26:34.286Z,10.75
2022-10-08T07:29:06.334Z,12.82
2022-10-08T07:31:37.198Z,13.00
2022-10-08T07:34:08.198Z,9.38
2022-10-08T07:36:38.539Z,13.32
2022-10-08T07:39:09.955Z,14.95
2022-10-08T07:41:38.375Z,12.82
2022-10-08T07:44:07.348Z,14.32
2022-10-08T07:46:38.180Z,6.88
2022-10-08T07:49:06.476Z,11.65
2022-10-08T07:51:36.987Z,8.02
2022-10-08T07:54:08.461Z,7.60
2022-10-08T07:56:37.776Z,13.13
2022-10-08T07:59:06.881Z,9.98
2022-10-08T08:01:36.142Z,10.80
2022-10-08T08:04:08.009Z,7.95
2022-10-08T08:06:42.062Z,10.32
2022-10-08T08:09:11.402Z,13.43
2022-10-08T08:11:40.198Z,10.13
2022-10-08T08:14:09.184Z,9.85
2022-10-08T08:16:37.482Z,12.80
2022-10-08T08:19:06.015Z,10.55
2022-10-08T08:21:37.865Z,8.80
2022-10-08T08:24:09.236Z,8.07
2022-10-08T08:26:40.663Z,12.68
2022-10-08T08:29:12.900Z,7.85
2022-10-08T08:31:43.788Z,13.73
2022-10-08T08:34:15.003Z,8.93
2022-10-08T08:36:46.762Z,8.35
2022-10-08T08:39:18.582Z,8.48
2022-10-08T08:42:19.493Z,10.90
2022-10-08T08:44:50.866Z,8.25
2022-10-08T08:47:24.617Z,8.82
2022-10-08T08:49:56.844Z,7.95
2022-10-08T08:52:30.742Z,12.00
2022-10-08T08:54:59.172Z,11.18
2022-10-08T08:57:38.531Z,12.10
2022-10-08T09:00:16.219Z,7.90
2022-10-08T09:02:55.539Z,8.05
2022-10-08T09:05:27.241Z,11.32
2022-10-08T09:08:05.217Z,11.00
2022-10-08T09:10:44.123Z,11.52
2022-10-08T09:13:19.086Z,12.10
2022-10-08T09:15:47.491Z,11.10
2022-10-08T09:18:17.118Z,10.98
2022-10-08T09:20:46.070Z,11.95
2022-10-08T09:23:20.047Z,10.68
2022-10-08T09:25:57.330Z,7.45
2022-10-08T09:28:41.230Z,5.35
2022-10-08T09:31:21.700Z,7.90
2022-10-08T09:33:59.271Z,8.65
2022-10-08T09:36:35.572Z,9.38
2022-10-08T09:39:08.321Z,11.27
2022-10-08T09:41:36.594Z,4.80
2022-10-08T09:44:19.701Z,10.15
2022-10-08T09:46:49.573Z,9.40
2022-10-08T09:49:32.899Z,7.03
2022-10-08T09:52:07.635Z,9.43
2022-10-08T09:54:46.353Z,6.70
2022-10-08T09:57:17.856Z,11.77
2022-10-08T09:59:53.929Z,6.22
2022-10-08T10:02:32.203Z,5.25
2022-10-08T10:05:05.188Z,7.45
2022-10-08T10:07:43.715Z,8.68
2022-10-08T10:10:23.331Z,5.93
2022-10-08T10:12:59.916Z,3.55
2022-10-08T10:15:35.245Z,5.70
2022-10-08T10:18:12.634Z,5.93
2022-10-08T10:20:46.443Z,5.05
2022-10-08T10:23:21.434Z,6.25
2022-10-08T10:25:57.612Z,4.65
2022-10-08T10:28:39.962Z,2.80
2022-10-08T10:31:13.958Z,7.38
2022-10-08T10:33:51.846Z,6.40
2022-10-08T10:36:23.208Z,4.22
2022-10-08T10:39:04.202Z,4.50
2022-10-08T10:41:43.082Z,4.22
2022-10-08T10:44:15.025Z,6.22
2022-10-08T10:46:49.528Z,5.10
2022-10-08T10:49:22.190Z,4.13
2022-10-08T10:52:03.416Z,7.75
2022-10-08T10:55:00.762Z,3.67
2022-10-08T10:57:50.017Z,5.05
2022-10-08T11:00:24.547Z,5.28
2022-10-08T11:03:00.944Z,5.10
2022-10-08T11:05:33.726Z,5.72
2022-10-08T11:08:30.212Z,5.63
2022-10-08T11:11:21.067Z,3.85
2022-10-08T11:14:07.544Z,6.18
2022-10-08T11:16:50.207Z,4.07
2022-10-08T11:19:43.037Z,5.63
2022-10-08T11:22:25.807Z,4.28
2022-10-08T11:25:28.490Z,6.43
2022-10-08T11:28:17.326Z,5.85
2022-10-08T11:31:00.912Z,2.85
2022-10-08T11:33:32.055Z,3.10
2022-10-08T11:36:29.250Z,2.03
2022-10-08T11:39:11.354Z,3.78
2022-10-08T11:41:50.466Z,2.33
2022-10-08T11:44:20.100Z,3.40
2022-10-08T11:46:49.758Z,2.35
2022-10-08T11:49:54.867Z,2.15
2022-10-08T11:52:23.401Z,2.00
2022-10-08T11:54:55.744Z,1.88
2022-10-08T11:57:55.419Z,1.80
2022-10-08T12:00:40.048Z,3.80
2022-10-08T12:03:27.082Z,2.63
2022-10-08T12:05:59.429Z,2.22
2022-10-08T12:08:53.356Z,2.38
2022-10-08T12:11:53.793Z,2.10
2022-10-08T12:14:44.490Z,4.22
2022-10-08T12:17:13.693Z,2.65
2022-10-08T12:20:20.371Z,3.13
2022-10-08T12:23:38.968Z,4.28
2022-10-08T12:26:13.345Z,3.15
2022-10-08T12:28:50.375Z,2.55
2022-10-08T12:31:28.856Z,3.58
2022-10-08T12:34:04.890Z,4.75
2022-10-08T12:37:06.430Z,3.85
2022-10-08T12:39:41.688Z,5.35
2022-10-08T12:42:20.479Z,4.70
2022-10-08T12:45:08.905Z,5.40
2022-10-08T12:47:49.374Z,4.60
2022-10-08T12:50:37.687Z,10.10
2022-10-08T12:53:09.027Z,6.75
2022-10-08T12:55:48.399Z,6.82
2022-10-08T12:58:21.193Z,6.90
2022-10-08T13:00:55.630Z,7.20
2022-10-08T13:03:25.378Z,7.78
2022-10-08T13:05:55.375Z,8.18
2022-10-08T13:08:38.523Z,6.90
2022-10-08T13:11:10.520Z,7.35
2022-10-08T13:13:50.240Z,6.47
2022-10-08T13:16:21.884Z,5.05
2022-10-08T13:18:53.728Z,5.75
2022-10-08T13:21:35.223Z,6.28
2022-10-08T13:24:46.821Z,3.42
2022-10-08T13:27:27.790Z,10.05
2022-10-08T13:29:57.004Z,5.72
2022-10-08T13:32:29.444Z,4.75
2022-10-08T13:35:01.052Z,5.65
2022-10-08T13:37:37.061Z,10.30
2022-10-08T13:40:20.160Z,4.85
2022-10-08T13:42:51.608Z,4.60
2022-10-08T13:45:23.203Z,5.68
2022-10-08T13:47:52.063Z,6.90
2022-10-08T13:50:21.854Z,7.25
2022-10-08T13:52:55.572Z,6.45
2022-10-08T13:55:28.182Z,5.45
2022-10-08T13:57:59.769Z,6.25
2022-10-08T14:00:29.776Z,7.25
2022-10-08T14:02:58.515Z,4.22
2022-10-08T14:05:30.476Z,5.53
2022-10-08T14:08:04.905Z,5.63
2022-10-08T14:10:34.793Z,5.22
2022-10-08T14:13:02.921Z,5.65
2022-10-08T14:15:31.086Z,7.32
2022-10-08T14:17:59.244Z,8.07
2022-10-08T14:20:27.455Z,6.18
2022-10-08T14:22:55.627Z,5.70
2022-10-08T14:25:28.448Z,3.20
2022-10-08T14:27:58.470Z,10.07
2022-10-08T14:30:27.156Z,8.77
2022-10-08T14:32:55.826Z,9.65
2022-10-08T14:35:24.231Z,4.32
2022-10-08T14:37:52.400Z,6.30
2022-10-08T14:40:23.733Z,7.07
2022-10-08T14:42:52.185Z,4.78
2022-10-08T14:45:22.740Z,5.50
2022-10-08T14:47:50.912Z,4.32
2022-10-08T14:50:19.490Z,6.32
2022-10-08T14:52:48.196Z,10.65
2022-10-08T14:55:16.754Z,6.25
2022-10-08T14:57:45.322Z,3.75
2022-10-08T15:00:15.159Z,10.88
2022-10-08T15:02:44.907Z,7.10
2022-10-08T15:05:13.158Z,6.07
2022-10-08T15:07:41.313Z,7.63
2022-10-08T15:10:10.584Z,8.48
2022-10-08T15:12:38.874Z,5.80
2022-10-08T15:15:08.491Z,7.70
2022-10-08T15:17:36.607Z,5.93
2022-10-08T15:20:07.572Z,8.30
2022-10-08T15:22:35.674Z,4.75
2022-10-08T15:25:04.520Z,10.68
2022-10-08T15:27:32.776Z,8.48
2022-10-08T15:30:02.330Z,5.32
2022-10-08T15:32:30.845Z,9.40
2022-10-08T15:34:59.212Z,5.88
2022-10-08T15:37:28.629Z,9.85
2022-10-08T15:39:56.791Z,7.32
2022-10-08T15:42:25.025Z,8.07
2022-10-08T15:44:53.698Z,6.10
2022-10-08T15:47:22.094Z,5.57
2022-10-08T15:49:50.470Z,7.30
2022-10-08T15:52:22.026Z,5.35
2022-10-08T15:54:51.513Z,7.15
2022-10-08T15:57:20.465Z,9.20
2022-10-08T15:59:48.614Z,10.15
2022-10-08T16:02:18.030Z,4.68
2022-10-08T16:04:48.265Z,11.38
2022-10-08T16:07:16.756Z,8.30
2022-10-08T16:09:44.908Z,7.43
2022-10-08T16:12:14.467Z,10.05
2022-10-08T16:14:42.695Z,15.40
2022-10-08T16:17:10.999Z,14.07
2022-10-08T16:19:39.221Z,9.85
2022-10-08T16:22:07.943Z,8.38
2022-10-08T16:24:36.081Z,10.23
2022-10-08T16:27:04.605Z,9.15
2022-10-08T16:29:34.206Z,8.02
2022-10-08T16:32:02.478Z,9.48
2022-10-08T16:34:31.854Z,10.07
2022-10-08T16:37:01.901Z,12.13
2022-10-08T16:39:32.436Z,11.63
2022-10-08T16:42:01.064Z,11.02
2022-10-08T16:44:29.317Z,7.25
2022-10-08T16:46:58.802Z,7.05
2022-10-08T16:49:29.511Z,6.90
2022-10-08T16:52:00.508Z,6.47
2022-10-08T16:54:29.226Z,7.90
2022-10-08T16:56:58.189Z,6.53
2022-10-08T16:59:29.024Z,8.73
2022-10-08T17:02:00.505Z,8.05
2022-10-08T17:04:35.264Z,7.05
2022-10-08T17:07:03.320Z,7.55
2022-10-08T17:09:32.313Z,9.95
2022-10-08T17:12:01.026Z,11.65
2022-10-08T17:14:30.806Z,7.93
2022-10-08T17:17:00.426Z,10.52
2022-10-08T17:19:28.573Z,16.85
2022-10-08T17:21:56.945Z,14.10
2022-10-08T17:24:24.963Z,9.50
2022-10-08T17:26:53.284Z,11.98
2022-10-08T17:29:21.504Z,7.68
2022-10-08T17:31:49.750Z,10.55
2022-10-08T17:34:19.385Z,10.68
2022-10-08T17:36:47.777Z,9.30
2022-10-08T17:39:15.828Z,8.90
2022-10-08T17:41:44.900Z,9.35
2022-10-08T17:44:13.529Z,11.10
2022-10-08T17:46:45.612Z,9.50
2022-10-08T17:49:15.231Z,15.00
2022-10-08T17:51:45.981Z,8.80
2022-10-08T17:54:16.910Z,13.02
2022-10-08T17:56:45.342Z,11.98
2022-10-08T17:59:16.148Z,10.90
2022-10-08T18:01:45.730Z,13.25
2022-10-08T18:04:16.866Z,10.30
2022-10-08T18:06:48.697Z,14.35
2022-10-08T18:09:20.105Z,13.35
2022-10-08T18:11:51.880Z,13.15
2022-10-08T18:14:23.381Z,13.65
2022-10-08T18:16:52.448Z,12.23
2022-10-08T18:19:20.876Z,17.17
2022-10-08T18:21:50.471Z,10.70
2022-10-08T18:24:19.225Z,11.20
2022-10-08T18:26:47.610Z,9.43
2022-10-08T18:29:16.638Z,13.27
2022-10-08T18:31:46.615Z,14.73
2022-10-08T18:34:17.850Z,11.13
2022-10-08T18:36:47.383Z,11.43
2022-10-08T18:39:20.736Z,12.35
2022-10-08T18:41:52.714Z,18.63
2022-10-08T18:44:24.200Z,14.80
2022-10-08T18:46:53.461Z,16.92
2022-10-08T18:49:29.964Z,13.43
2022-10-08T18:52:01.548Z,16.15
2022-10-08T18:54:31.109Z,19.27
2022-10-08T18:57:00.244Z,17.02
2022-10-08T18:59:29.223Z,17.15
2022-10-08T19:01:59.507Z,21.00
2022-10-08T19:04:29.042Z,16.58
2022-10-08T19:06:57.187Z,17.67
2022-10-08T19:09:25.286Z,11.02
2022-10-08T19:11:57.268Z,15.77
2022-10-08T19:14:25.824Z,16.27
2022-10-08T19:16:53.926Z,13.15
2022-10-08T19:19:25.145Z,16.38
2022-10-08T19:21:54.341Z,8.90
2022-10-08T19:24:25.370Z,11.20
2022-10-08T19:26:57.165Z,11.93
2022-10-08T19:29:29.040Z,12.50
2022-10-08T19:31:57.767Z,8.63
2022-10-08T19:34:27.989Z,14.77
2022-10-08T19:36:56.414Z,10.15
2022-10-08T19:39:26.926Z,11.35
2022-10-08T19:41:56.510Z,15.57
2022-10-08T19:44:25.692Z,9.52
2022-10-08T19:46:54.430Z,17.08
2022-10-08T19:49:22.868Z,12.35
2022-10-08T19:51:51.314Z,10.48
2022-10-08T19:54:19.428Z,9.20
2022-10-08T19:56:47.600Z,9.82
2022-10-08T19:59:17.567Z,13.85
2022-10-08T20:01:46.012Z,9.93
2022-10-08T20:04:16.635Z,15.88
2022-10-08T20:06:45.235Z,10.38
2022-10-08T20:09:14.918Z,15.48
2022-10-08T20:11:45.311Z,10.55
2022-10-08T20:14:16.334Z,9.13
2022-10-08T20:16:45.340Z,8.15
2022-10-08T20:19:17.969Z,13.55
2022-10-08T20:21:48.858Z,9.32
2022-10-08T20:24:18.706Z,17.02
2022-10-08T20:26:48.815Z,10.38
2022-10-08T20:29:21.014Z,8.40
2022-10-08T20:31:54.082Z,14.98
2022-10-08T20:34:26.985Z,11.45
2022-10-08T20:36:55.550Z,11.80
2022-10-08T20:39:23.942Z,8.95
2022-10-08T20:41:52.685Z,15.77
2022-10-08T20:44:22.681Z,16.35
2022-10-08T20:46:52.656Z,14.07
2022-10-08T20:49:20.874Z,15.15
2022-10-08T20:51:49.079Z,13.05
2022-10-08T20:54:18.169Z,12.02
2022-10-08T20:56:46.551Z,10.77
2022-10-08T20:59:18.108Z,13.80
2022-10-08T21:01:50.008Z,11.10
2022-10-08T21:04:18.821Z,12.32
2022-10-08T21:06:49.406Z,8.40
2022-10-08T21:09:20.367Z,8.98
2022-10-08T21:11:49.592Z,9.30
2022-10-08T21:14:21.386Z,15.10
2022-10-08T21:16:53.474Z,14.10
2022-10-08T21:19:23.221Z,13.85
2022-10-08T21:21:52.125Z,11.13
2022-10-08T21:24:21.510Z,15.07
2022-10-08T21:26:49.818Z,13.50
2022-10-08T21:29:17.980Z,13.27
2022-10-08T21:31:46.133Z,9.88
2022-10-08T21:34:16.020Z,10.93
2022-10-08T21:36:45.146Z,9.02
2022-10-08T21:39:18.203Z,8.98
2022-10-08T21:41:47.496Z,16.17
2022-10-08T21:44:16.379Z,10.43
2022-10-08T21:46:45.339Z,15.57
2022-10-08T21:49:18.126Z,10.80
2022-10-08T21:51:47.026Z,8.15
2022-10-08T21:54:16.522Z,10.15
2022-10-08T21:56:45.898Z,10.10
2022-10-08T21:59:16.714Z,13.38
2022-10-08T22:01:47.205Z,12.40
2022-10-08T22:04:21.419Z,16.70
2022-10-08T22:06:51.950Z,11.88
2022-10-08T22:09:24.135Z,15.07
2022-10-08T22:11:54.319Z,10.88
2022-10-08T22:14:22.902Z,10.85
2022-10-08T22:16:51.542Z,12.35
2022-10-08T22:19:21.429Z,13.93
2022-10-08T22:21:49.826Z,16.75
2022-10-08T22:24:17.977Z,13.95
2022-10-08T22:26:48.478Z,12.85
2022-10-08T22:29:17.223Z,11.45
2022-10-08T22:31:45.756Z,15.13
2022-10-08T22:34:14.272Z,11.43
2022-10-08T22:36:45.270Z,15.75
2022-10-08T22:39:13.935Z,12.02
2022-10-08T22:41:42.093Z,14.40
2022-10-08T22:44:10.240Z,10.30
2022-10-08T22:46:40.696Z,10.53
2022-10-08T22:49:11.887Z,15.23
2022-10-08T22:51:40.879Z,10.40
2022-10-08T22:54:11.072Z,8.77
2022-10-08T22:56:39.355Z,13.63
2022-10-08T22:59:07.661Z,8.35
2022-10-08T23:01:35.877Z,12.20
2022-10-08T23:04:04.092Z,11.20
2022-10-08T23:06:36.453Z,9.93
2022-10-08T23:09:08.164Z,10.88
2022-10-08T23:11:37.954Z,13.00
2022-10-08T23:14:07.310Z,13.50
2022-10-08T23:16:35.907Z,10.80
2022-10-08T23:19:07.947Z,15.15
2022-10-08T23:21:37.728Z,15.93
2022-10-08T23:24:07.184Z,14.15
2022-10-08T23:26:37.470Z,11.95
2022-10-08T23:29:06.551Z,10.13
2022-10-08T23:31:37.328Z,14.17
2022-10-08T23:34:08.507Z,12.05
2022-10-08T23:36:40.106Z,11.20
2022-10-08T23:39:12.088Z,10.50
2022-10-08T23:41:42.533Z,12.48
2022-10-08T23:44:13.474Z,9.45
2022-10-08T23:46:41.684Z,11.23
2022-10-08T23:49:10.281Z,13.90
2022-10-08T23:51:38.508Z,12.93
2022-10-08T23:54:07.277Z,15.18
2022-10-08T23:56:35.806Z,12.88
2022-10-08T23:59:05.624Z,10.85
